Time;durP1;ratioP1;P1;durP2;ratioP2;P2;SDS_P1;SDS_P2;PMS_P1;PMS_P2;Temp;Humidity;BMP_temperature;BMP_pressure;BME280_temperature;BME280_humidity;BME280_pressure;Samples;Min_cycle;Max_cycle;Signal;HPM_P1;HPM_P2
2022/07/12 00:01:35;;;;;;;;;;;;;;;15.98;44.55;101209.22;4843031;28;98041;-64
2022/07/12 00:04:28;;;;;;;;;;;;;;;15.95;44.67;101213.31;4833106;28;98015;-64
2022/07/12 00:07:21;;;;;;;;;;;;;;;16.00;44.53;101210.56;4829477;28;98193;-57
2022/07/12 00:10:14;;;;;;;;;;;;;;;16.12;44.38;101215.63;4841524;28;98038;-58
2022/07/12 00:13:06;;;;;;;;;;;;;;;16.22;44.18;101212.78;4842595;28;97980;-65
2022/07/12 00:15:59;;;;;;;;;;;;;;;16.29;44.18;101218.69;4842692;28;97978;-57
2022/07/12 00:18:52;;;;;;;;;;;;;;;16.33;43.95;101219.75;4830078;28;98554;-64
2022/07/12 00:21:44;;;;;;;;;;;;;;;16.38;44.17;101218.88;4841862;28;98359;-57
2022/07/12 00:24:37;;;;;;;;;;;;;;;16.42;44.03;101217.19;4840671;28;97906;-57
2022/07/12 00:27:29;;;;;;;;;;;;;;;16.45;43.74;101213.91;4841940;28;98419;-64
2022/07/12 00:30:22;;;;;;;;;;;;;;;16.45;43.95;101225.59;4829972;28;99129;-57
2022/07/12 00:33:14;;;;;;;;;;;;;;;16.40;44.04;101222.94;4821988;28;99665;-57
2022/07/12 00:36:07;;;;;;;;;;;;;;;16.36;43.95;101226.53;4842678;28;98104;-65
2022/07/12 00:39:00;;;;;;;;;;;;;;;16.34;44.06;101228.72;4836144;28;98984;-65
2022/07/12 00:41:52;;;;;;;;;;;;;;;16.30;44.03;101228.47;4822774;28;98754;-64
2022/07/12 00:44:45;;;;;;;;;;;;;;;16.26;44.07;101221.19;4898142;28;98786;-57
2022/07/12 00:48:01;;;;;;;;;;;;;;;16.22;44.35;101233.75;4823155;28;97887;-58
2022/07/12 00:50:53;;;;;;;;;;;;;;;16.15;44.11;101229.47;4838207;28;99105;-58
2022/07/12 00:53:46;;;;;;;;;;;;;;;16.12;44.29;101234.66;4831315;28;98452;-65
2022/07/12 00:56:39;;;;;;;;;;;;;;;16.08;44.51;101231.69;4822927;28;98181;-63
2022/07/12 00:59:31;;;;;;;;;;;;;;;16.02;44.58;101240.16;4831625;28;98372;-57
2022/07/12 01:02:24;;;;;;;;;;;;;;;15.98;44.65;101241.84;4839470;28;99111;-57
2022/07/12 01:05:16;;;;;;;;;;;;;;;15.92;44.67;101247.31;4835767;28;98490;-57
2022/07/12 01:08:09;;;;;;;;;;;;;;;15.85;44.61;101241.41;4824419;28;98516;-64
2022/07/12 01:11:13;;;;;;;;;;;;;;;15.76;44.69;101242.28;4831718;28;97973;-65
2022/07/12 01:14:05;;;;;;;;;;;;;;;15.66;44.86;101243.16;4841196;28;98281;-64
2022/07/12 01:16:58;;;;;;;;;;;;;;;15.58;44.90;101241.81;4841204;28;98237;-64
2022/07/12 01:19:50;;;;;;;;;;;;;;;15.56;45.09;101235.03;4821838;28;98097;-57
2022/07/12 01:23:14;;;;;;;;;;;;;;;15.51;45.30;101245.94;4843345;28;97892;-58
2022/07/12 01:26:07;;;;;;;;;;;;;;;15.43;45.54;101248.16;4824824;28;98674;-58
2022/07/12 01:29:00;;;;;;;;;;;;;;;15.39;45.69;101247.09;4821922;28;98140;-64
2022/07/12 01:31:52;;;;;;;;;;;;;;;15.36;45.48;101255.00;4837131;28;98056;-57
2022/07/12 01:34:45;;;;;;;;;;;;;;;15.32;45.91;101253.94;4840368;28;97878;-64
2022/07/12 01:37:49;;;;;;;;;;;;;;;15.28;45.65;101248.25;4840946;28;98570;-66
2022/07/12 01:40:42;;;;;;;;;;;;;;;15.23;45.82;101254.53;4883083;28;98458;-64
2022/07/12 01:43:35;;;;;;;;;;;;;;;15.19;46.13;101247.22;4823023;28;99087;-65
2022/07/12 01:46:27;;;;;;;;;;;;;;;15.13;45.95;101260.03;4831739;28;97927;-64
2022/07/12 01:49:20;;;;;;;;;;;;;;;15.09;46.14;101255.41;4843695;28;98165;-64
2022/07/12 01:52:13;;;;;;;;;;;;;;;15.02;46.32;101260.34;4842713;28;98019;-64
2022/07/12 01:55:06;;;;;;;;;;;;;;;14.96;46.17;101259.53;4842501;28;97867;-57
2022/07/12 01:57:59;;;;;;;;;;;;;;;14.88;46.62;101270.97;4843440;28;97822;-57
2022/07/12 02:00:52;;;;;;;;;;;;;;;14.82;46.46;101267.47;4831862;28;98708;-57
2022/07/12 02:03:44;;;;;;;;;;;;;;;14.75;46.79;101271.56;4839195;28;98525;-65
2022/07/12 02:06:38;;;;;;;;;;;;;;;14.71;46.62;101265.88;4836758;28;98072;-59
2022/07/12 02:09:31;;;;;;;;;;;;;;;14.72;46.92;101267.47;4825116;28;97882;-64
2022/07/12 02:12:24;;;;;;;;;;;;;;;14.71;46.60;101268.56;4900166;28;98281;-64
2022/07/12 02:15:17;;;;;;;;;;;;;;;14.73;46.62;101269.09;4843175;28;99091;-57
2022/07/12 02:18:09;;;;;;;;;;;;;;;14.75;46.60;101269.66;4842858;28;98114;-57
2022/07/12 02:21:13;;;;;;;;;;;;;;;14.77;46.67;101269.38;4893512;28;98252;-57
2022/07/12 02:24:06;;;;;;;;;;;;;;;14.78;46.78;101265.59;4823791;28;98205;-64
2022/07/12 02:27:08;;;;;;;;;;;;;;;14.78;46.94;101271.00;4887975;28;97980;-64
2022/07/12 02:30:01;;;;;;;;;;;;;;;14.75;46.80;101277.78;4829975;28;98151;-58
2022/07/12 02:32:54;;;;;;;;;;;;;;;14.73;47.35;101277.25;4830758;28;98021;-64
2022/07/12 02:35:47;;;;;;;;;;;;;;;14.72;47.17;101272.91;4840440;28;98183;-64
2022/07/12 02:38:40;;;;;;;;;;;;;;;14.73;47.06;101277.25;4843061;28;99127;-64
2022/07/12 02:41:33;;;;;;;;;;;;;;;14.77;47.22;101282.94;4843225;28;98273;-64
2022/07/12 02:44:25;;;;;;;;;;;;;;;14.81;47.24;101281.28;4841374;28;97823;-58
2022/07/12 02:47:18;;;;;;;;;;;;;;;14.84;47.16;101286.97;4825941;28;98469;-58
2022/07/12 02:50:10;;;;;;;;;;;;;;;14.88;46.78;101279.09;4826120;28;98599;-58
2022/07/12 02:53:03;;;;;;;;;;;;;;;14.89;47.16;101286.16;4842607;28;98193;-57
2022/07/12 02:55:55;;;;;;;;;;;;;;;14.88;46.81;101277.19;4824762;28;97739;-57
2022/07/12 02:58:48;;;;;;;;;;;;;;;14.86;47.11;101292.97;4824342;28;98839;-65
2022/07/12 03:01:40;;;;;;;;;;;;;;;14.84;47.27;101288.88;4823855;28;98758;-57
2022/07/12 03:04:33;;;;;;;;;;;;;;;14.83;47.02;101290.78;4841360;28;98280;-57
2022/07/12 03:07:26;;;;;;;;;;;;;;;14.83;47.36;101287.28;4823716;28;97891;-57
2022/07/12 03:10:19;;;;;;;;;;;;;;;14.82;47.13;101280.22;4835924;28;98540;-66
2022/07/12 03:13:11;;;;;;;;;;;;;;;14.81;47.00;101284.00;4862027;28;98361;-57
2022/07/12 03:16:04;;;;;;;;;;;;;;;14.81;47.33;101275.88;4843057;28;98713;-57
2022/07/12 03:18:57;;;;;;;;;;;;;;;14.82;47.55;101283.75;4841475;28;97681;-58
2022/07/12 03:21:49;;;;;;;;;;;;;;;14.81;47.48;101282.09;4837389;28;98702;-65
2022/07/12 03:24:42;;;;;;;;;;;;;;;14.79;47.69;101281.56;4842270;28;98451;-64
2022/07/12 03:27:35;;;;;;;;;;;;;;;14.79;47.47;101278.06;4823745;28;98093;-57
2022/07/12 03:30:28;;;;;;;;;;;;;;;14.79;47.73;101283.47;4825430;28;97777;-64
2022/07/12 03:33:20;;;;;;;;;;;;;;;14.80;47.63;101277.75;4823685;28;98473;-57
2022/07/12 03:36:13;;;;;;;;;;;;;;;14.82;47.89;101285.66;4823004;28;98750;-57
2022/07/12 03:39:06;;;;;;;;;;;;;;;14.85;48.13;101291.31;4823570;28;97991;-57
2022/07/12 03:41:58;;;;;;;;;;;;;;;14.89;48.17;101297.00;4834194;28;98055;-57
2022/07/12 03:44:51;;;;;;;;;;;;;;;14.94;48.25;101299.72;4841725;28;98441;-57
2022/07/12 03:47:44;;;;;;;;;;;;;;;14.98;48.29;101303.50;4906580;28;100658;-57
2022/07/12 03:50:36;;;;;;;;;;;;;;;15.02;48.13;101301.88;4837113;28;97892;-57
2022/07/12 03:53:29;;;;;;;;;;;;;;;15.08;48.07;101303.47;4842179;28;97902;-57
2022/07/12 03:59:25;;;;;;;;;;;;;;;15.19;48.25;101310.47;4839096;28;98497;-64
2022/07/12 04:02:18;;;;;;;;;;;;;;;15.22;48.26;101306.41;4831329;28;97885;-57
2022/07/12 04:05:10;;;;;;;;;;;;;;;15.23;48.57;101313.47;4838319;28;98208;-64
2022/07/12 04:08:03;;;;;;;;;;;;;;;15.25;48.40;101308.56;4841462;28;98614;-65
2022/07/12 04:10:55;;;;;;;;;;;;;;;15.27;48.76;101308.28;4835973;28;98538;-64
2022/07/12 04:13:48;;;;;;;;;;;;;;;15.26;48.63;101307.47;4841887;28;97934;-65
2022/07/12 04:16:41;;;;;;;;;;;;;;;15.25;48.89;101314.00;4848555;28;98291;-64
2022/07/12 04:19:33;;;;;;;;;;;;;;;15.28;48.86;101312.63;4903287;28;98201;-64
2022/07/12 04:22:26;;;;;;;;;;;;;;;15.32;49.58;101308.25;4828791;28;98513;-58
2022/07/12 04:25:19;;;;;;;;;;;;;;;15.35;49.41;101307.69;4822925;28;97768;-63
2022/07/12 04:28:12;;;;;;;;;;;;;;;15.39;49.53;101304.16;4913143;28;98076;-64
2022/07/12 04:31:04;;;;;;;;;;;;;;;15.46;50.03;101312.00;4838517;28;98571;-57
2022/07/12 04:33:57;;;;;;;;;;;;;;;15.53;49.89;101315.22;4842258;28;98887;-58
2022/07/12 04:36:50;;;;;;;;;;;;;;;15.62;49.72;101316.25;4840935;28;98273;-57
2022/07/12 04:39:42;;;;;;;;;;;;;;;15.70;49.84;101317.59;4843648;28;97725;-64
2022/07/12 04:42:35;;;;;;;;;;;;;;;15.79;49.99;101317.81;4828050;28;99720;-57
2022/07/12 04:45:27;;;;;;;;;;;;;;;15.85;50.19;101320.22;4822592;28;98287;-64
2022/07/12 04:48:20;;;;;;;;;;;;;;;15.91;50.32;101316.38;4822529;28;97869;-65
2022/07/12 04:51:14;;;;;;;;;;;;;;;15.97;50.45;101313.63;4831647;28;99153;-65
2022/07/12 04:54:07;;;;;;;;;;;;;;;16.04;50.60;101305.97;4900265;28;98632;-64
2022/07/12 04:57:00;;;;;;;;;;;;;;;16.13;50.63;101317.84;4916803;28;98642;-64
2022/07/12 04:59:52;;;;;;;;;;;;;;;16.23;50.84;101316.94;4892468;28;98984;-64
2022/07/12 05:02:46;;;;;;;;;;;;;;;16.36;50.83;101325.28;4911317;28;98045;-65
2022/07/12 05:05:38;;;;;;;;;;;;;;;16.51;50.95;101340.66;4907450;28;98365;-65
2022/07/12 05:09:10;;;;;;;;;;;;;;;16.66;51.21;101332.38;4937895;28;98595;-65
2022/07/12 21:48:24;;;;;;;;;;;;;;;21.18;39.77;101179.13;4838993;28;98051;-65
2022/07/12 23:33:12;;;;;;;;;;;;;;;19.08;43.95;101184.59;4839764;28;98130;-57
